Time;durP1;ratioP1;P1;durP2;ratioP2;P2;SDS_P1;SDS_P2;PMS_P1;PMS_P2;Temp;Humidity;BMP_temperature;BMP_pressure;BME280_temperature;BME280_humidity;BME280_pressure;Samples;Min_cycle;Max_cycle;Signal;HPM_P1;HPM_P2
2024/02/04 00:01:45;;;;;;;2.27;1.00;;;;;;;10.27;92.52;99245.88;4078607;29;20648;-85
2024/02/04 00:03:49;;;;;;;1.20;0.60;;;;;;;10.24;92.66;99237.34;4062147;29;20665;-85
2024/02/04 00:06:12;;;;;;;1.40;0.70;;;;;;;10.26;92.75;99225.94;4075333;29;20666;-85
2024/02/04 00:08:17;;;;;;;1.60;0.77;;;;;;;10.23;93.17;99226.06;4064210;29;21225;-85
2024/02/04 00:10:20;;;;;;;1.27;0.57;;;;;;;10.23;92.58;99231.28;4052800;29;20651;-85
2024/02/04 00:12:24;;;;;;;2.53;0.73;;;;;;;10.20;92.42;99225.38;4077052;29;20789;-85
2024/02/04 00:14:27;;;;;;;1.17;0.50;;;;;;;10.21;93.09;99222.72;4086798;28;20716;-85
2024/02/04 00:16:30;;;;;;;2.10;1.20;;;;;;;10.23;92.28;99222.63;4055445;29;20656;-85
2024/02/04 00:18:33;;;;;;;2.40;1.37;;;;;;;10.24;92.31;99211.25;4054979;29;20642;-85
2024/02/04 00:20:38;;;;;;;1.57;0.70;;;;;;;10.24;93.28;99204.31;4071374;29;20662;-85
2024/02/04 00:22:41;;;;;;;1.40;0.70;;;;;;;10.18;93.41;99206.34;4074262;29;20683;-85
2024/02/04 00:24:44;;;;;;;1.10;0.50;;;;;;;10.21;92.85;99207.06;4076264;29;20692;-85
2024/02/04 00:26:47;;;;;;;2.60;0.70;;;;;;;10.23;92.90;99205.22;4056155;29;20638;-85
2024/02/04 00:28:50;;;;;;;1.33;0.68;;;;;;;10.24;92.75;99204.31;4058194;29;20794;-85
2024/02/04 00:30:55;;;;;;;1.33;0.47;;;;;;;10.27;93.02;99211.13;4059231;29;20247;-85
2024/02/04 00:33:02;;;;;;;1.73;0.60;;;;;;;10.28;92.49;99205.81;4075683;29;20639;-85
2024/02/04 00:35:07;;;;;;;1.40;0.60;;;;;;;10.30;91.90;99205.75;4068852;29;20250;-85
2024/02/04 00:37:11;;;;;;;1.33;0.60;;;;;;;10.29;92.95;99197.09;4077163;29;20202;-85
2024/02/04 00:39:15;;;;;;;1.73;0.70;;;;;;;10.32;92.70;99199.56;4060475;29;20686;-85
2024/02/04 00:41:18;;;;;;;1.20;0.60;;;;;;;10.28;93.04;99197.16;4075376;29;20722;-84
2024/02/04 00:43:21;;;;;;;1.60;0.60;;;;;;;10.29;92.07;99199.69;4063356;29;20651;-85
2024/02/04 00:45:23;;;;;;;1.13;0.40;;;;;;;10.31;92.67;99199.63;4064862;29;20619;-85
2024/02/04 00:47:27;;;;;;;3.47;0.70;;;;;;;10.33;92.92;99209.06;4067248;29;20690;-85
2024/02/04 00:49:30;;;;;;;1.67;0.73;;;;;;;10.36;92.51;99211.53;4062209;29;20719;-85
2024/02/04 00:51:34;;;;;;;1.30;0.57;;;;;;;10.38;92.06;99217.50;4080498;29;21194;-85
2024/02/04 00:53:38;;;;;;;2.07;0.60;;;;;;;10.41;92.90;99227.78;4078301;29;20659;-85
2024/02/04 00:55:42;;;;;;;1.20;0.50;;;;;;;10.41;91.72;99225.16;4082712;29;20754;-85
2024/02/04 00:57:45;;;;;;;2.17;0.70;;;;;;;10.42;91.62;99221.66;4072270;29;20638;-85
2024/02/04 00:59:50;;;;;;;1.40;0.63;;;;;;;10.43;92.46;99229.41;4061263;29;21176;-85
2024/02/04 01:01:53;;;;;;;1.20;0.50;;;;;;;10.45;91.75;99218.91;4070036;29;21293;-85
2024/02/04 01:03:56;;;;;;;1.27;0.50;;;;;;;10.46;91.44;99215.34;4054815;29;21276;-85
2024/02/04 01:05:59;;;;;;;1.20;0.50;;;;;;;10.48;91.42;99214.38;4062723;29;20663;-87
2024/02/04 01:08:02;;;;;;;1.30;0.60;;;;;;;10.45;92.52;99208.47;4070036;29;20634;-87
2024/02/04 01:10:08;;;;;;;1.20;0.53;;;;;;;10.46;92.08;99210.13;4061091;29;20670;-86
2024/02/04 01:12:12;;;;;;;1.60;0.50;;;;;;;10.47;92.48;99210.06;4074947;29;20634;-87
2024/02/04 01:14:15;;;;;;;1.20;0.40;;;;;;;10.49;91.35;99212.59;4078054;29;20638;-85
2024/02/04 01:16:17;;;;;;;2.40;0.60;;;;;;;10.51;92.33;99213.38;4077273;29;21576;-87
2024/02/04 01:18:21;;;;;;;1.27;0.50;;;;;;;10.55;91.86;99217.50;4075025;29;21187;-86
2024/02/04 01:20:24;;;;;;;2.07;0.60;;;;;;;10.56;91.36;99221.81;4074689;29;20717;-86
2024/02/04 01:22:28;;;;;;;1.10;0.50;;;;;;;10.57;91.80;99221.72;4059335;29;20670;-88
2024/02/04 01:24:31;;;;;;;1.40;0.70;;;;;;;10.57;92.08;99221.72;4074533;29;20657;-87
2024/02/04 01:26:36;;;;;;;1.87;0.50;;;;;;;10.59;90.76;99219.88;4076001;29;20615;-87
2024/02/04 01:28:39;;;;;;;1.30;0.57;;;;;;;10.59;91.08;99221.66;4072727;29;20634;-86
2024/02/04 01:30:42;;;;;;;1.10;0.43;;;;;;;10.61;90.52;99218.03;4061073;29;20744;-86
2024/02/04 01:32:45;;;;;;;1.10;0.50;;;;;;;10.60;90.48;99221.56;4072890;29;20634;-86
2024/02/04 01:34:48;;;;;;;1.20;0.40;;;;;;;10.57;90.19;99215.66;4072777;29;21215;-86
2024/02/04 01:36:52;;;;;;;1.10;0.43;;;;;;;10.57;90.59;99202.59;4076413;29;20627;-87
2024/02/04 01:38:56;;;;;;;1.20;0.43;;;;;;;10.54;91.33;99208.84;4076076;29;21592;-86
2024/02/04 01:40:59;;;;;;;1.30;0.60;;;;;;;10.57;90.74;99195.66;4077626;29;20636;-87
2024/02/04 01:43:05;;;;;;;1.40;0.33;;;;;;;10.60;90.36;99199.84;4074654;29;20627;-87
2024/02/04 01:45:09;;;;;;;1.30;0.50;;;;;;;10.61;91.08;99201.53;4070016;29;21116;-87
2024/02/04 01:47:13;;;;;;;2.77;0.70;;;;;;;10.64;90.45;99196.16;4073416;29;20649;-87
2024/02/04 01:49:16;;;;;;;1.30;0.60;;;;;;;10.66;91.26;99194.31;4058315;29;20638;-87
2024/02/04 01:51:21;;;;;;;1.20;0.50;;;;;;;10.67;90.23;99190.78;4062618;29;20649;-86
2024/02/04 01:53:25;;;;;;;2.23;0.70;;;;;;;10.67;91.46;99196.00;4077885;29;20716;-87
2024/02/04 01:55:28;;;;;;;1.60;0.57;;;;;;;10.66;90.69;99208.22;4079808;29;20628;-87
2024/02/04 01:57:31;;;;;;;1.50;0.60;;;;;;;10.64;90.19;99204.00;4060448;29;21022;-86
2024/02/04 01:59:36;;;;;;;1.40;0.60;;;;;;;10.63;91.12;99197.94;4059417;29;20992;-87
2024/02/04 02:01:39;;;;;;;1.20;0.50;;;;;;;10.65;90.38;99197.88;4062647;29;20627;-87
2024/02/04 02:03:43;;;;;;;1.23;0.60;;;;;;;10.66;90.16;99209.97;4077697;29;20773;-87
2024/02/04 02:05:47;;;;;;;1.20;0.40;;;;;;;10.65;90.49;99197.88;4071917;29;21227;-87
2024/02/04 02:07:51;;;;;;;1.40;0.57;;;;;;;10.66;91.22;99207.34;4060310;29;21242;-86
2024/02/04 02:09:55;;;;;;;1.87;0.53;;;;;;;10.64;89.81;99193.56;4073525;29;20663;-87
2024/02/04 02:12:04;;;;;;;1.27;0.57;;;;;;;10.64;90.25;99188.34;4071440;29;20643;-87
2024/02/04 02:14:14;;;;;;;1.50;0.60;;;;;;;10.65;91.13;99190.03;4054689;29;20640;-86
2024/02/04 02:16:24;;;;;;;1.10;0.40;;;;;;;10.63;90.58;99189.25;4074633;29;21250;-87
2024/02/04 02:18:33;;;;;;;1.50;0.43;;;;;;;10.63;91.23;99186.66;4074490;29;20688;-88
2024/02/04 02:20:42;;;;;;;1.77;0.50;;;;;;;10.61;90.31;99186.72;4075415;29;20665;-87
2024/02/04 02:22:50;;;;;;;1.87;0.60;;;;;;;10.59;89.79;99177.31;4074365;29;20736;-87
2024/02/04 02:24:57;;;;;;;1.10;0.43;;;;;;;10.59;90.28;99178.13;4090443;28;21238;-88
2024/02/04 02:27:02;;;;;;;2.10;0.50;;;;;;;10.60;90.49;99185.06;4068863;29;20665;-87
2024/02/04 02:29:08;;;;;;;1.40;0.47;;;;;;;10.57;90.07;99181.75;4066631;29;21220;-87
2024/02/04 02:31:11;;;;;;;1.70;0.50;;;;;;;10.58;91.67;99180.81;4071317;29;20670;-86
2024/02/04 02:33:16;;;;;;;1.20;0.40;;;;;;;10.56;90.15;99182.69;4058837;29;20746;-87
2024/02/04 02:35:19;;;;;;;1.20;0.50;;;;;;;10.55;91.08;99191.41;4060836;29;20626;-86
2024/02/04 02:37:28;;;;;;;1.20;0.57;;;;;;;10.49;91.12;99182.16;4076907;29;20647;-87
2024/02/04 02:39:36;;;;;;;1.13;0.40;;;;;;;10.46;90.50;99182.31;4057275;29;20681;-86
2024/02/04 02:41:43;;;;;;;1.13;0.40;;;;;;;10.43;90.79;99177.25;4074180;29;20653;-87
2024/02/04 02:43:47;;;;;;;1.70;0.73;;;;;;;10.42;91.45;99180.75;4074507;29;20641;-88
2024/02/04 02:45:51;;;;;;;1.10;0.40;;;;;;;10.39;92.00;99180.91;4072543;29;20654;-87
2024/02/04 02:47:56;;;;;;;1.20;0.47;;;;;;;10.38;92.18;99178.38;4057488;29;20626;-87
2024/02/04 02:50:01;;;;;;;1.80;0.43;;;;;;;10.38;91.41;99173.16;4067223;29;20674;-86
2024/02/04 02:52:05;;;;;;;1.10;0.40;;;;;;;10.38;91.75;99187.03;4074826;29;20640;-85
2024/02/04 02:54:09;;;;;;;1.10;0.40;;;;;;;10.39;91.79;99178.31;4074144;29;21058;-87
2024/02/04 02:56:13;;;;;;;1.10;0.40;;;;;;;10.42;91.68;99179.94;4059296;29;20622;-87
2024/02/04 02:58:18;;;;;;;1.10;0.40;;;;;;;10.43;92.22;99177.25;4080791;28;20638;-87
2024/02/04 03:00:22;;;;;;;1.17;0.40;;;;;;;10.42;91.49;99177.31;4087696;28;20648;-87
2024/02/04 03:02:24;;;;;;;1.17;0.40;;;;;;;10.44;91.20;99183.28;4074861;28;20665;-88
2024/02/04 03:04:28;;;;;;;2.03;0.40;;;;;;;10.42;91.49;99180.75;4061940;29;20647;-87
2024/02/04 03:06:32;;;;;;;1.20;0.40;;;;;;;10.42;92.18;99183.38;4063537;29;20670;-87
2024/02/04 03:08:35;;;;;;;1.27;0.40;;;;;;;10.43;91.41;99189.41;4070610;29;20726;-87
2024/02/04 03:10:39;;;;;;;1.30;0.40;;;;;;;10.42;92.28;99182.53;4091478;28;21058;-86
2024/02/04 03:12:41;;;;;;;1.00;0.30;;;;;;;10.40;91.74;99185.22;4074888;29;20649;-87
2024/02/04 03:14:46;;;;;;;1.23;0.40;;;;;;;10.40;92.67;99177.41;4055874;29;21000;-86
2024/02/04 03:16:49;;;;;;;1.10;0.40;;;;;;;10.41;92.31;99168.63;4059340;29;21307;-86
2024/02/04 03:18:56;;;;;;;1.27;0.40;;;;;;;10.41;92.47;99167.81;4069769;29;20635;-86
2024/02/04 03:21:00;;;;;;;1.10;0.43;;;;;;;10.40;92.15;99177.41;4075996;29;20637;-87
2024/02/04 03:23:04;;;;;;;1.10;0.40;;;;;;;10.41;92.72;99171.25;4078174;29;20641;-88
2024/02/04 03:25:08;;;;;;;1.77;0.40;;;;;;;10.42;92.55;99175.56;4077081;29;20662;-87
2024/02/04 03:27:12;;;;;;;1.20;0.50;;;;;;;10.40;92.67;99160.88;4062578;29;20703;-87
2024/02/04 03:29:16;;;;;;;1.10;0.40;;;;;;;10.42;92.08;99174.72;4068843;29;20625;-87
2024/02/04 03:31:22;;;;;;;1.03;0.33;;;;;;;10.43;91.99;99168.56;4070862;29;20634;-86
2024/02/04 03:33:26;;;;;;;1.30;0.47;;;;;;;10.41;92.18;99171.25;4086317;28;20605;-87
2024/02/04 03:35:30;;;;;;;1.53;0.50;;;;;;;10.40;92.20;99176.53;4074401;29;20641;-86
2024/02/04 03:37:34;;;;;;;1.10;0.40;;;;;;;10.42;92.67;99180.75;4075163;29;20704;-87
2024/02/04 03:39:37;;;;;;;1.47;0.50;;;;;;;10.43;92.39;99179.00;4084573;28;20636;-87
2024/02/04 03:41:41;;;;;;;1.00;0.30;;;;;;;10.45;92.28;99177.16;4069766;29;21208;-86
2024/02/04 03:43:48;;;;;;;1.10;0.40;;;;;;;10.43;92.26;99176.38;4070340;29;20623;-87
2024/02/04 03:45:53;;;;;;;1.30;0.50;;;;;;;10.43;92.85;99181.59;4070375;29;20662;-86
2024/02/04 03:47:58;;;;;;;1.10;0.40;;;;;;;10.43;92.01;99182.47;4086830;28;20645;-86
2024/02/04 03:50:08;;;;;;;1.40;0.40;;;;;;;10.43;92.29;99176.38;4087718;28;20696;-87
2024/02/04 03:52:11;;;;;;;1.10;0.40;;;;;;;10.43;91.84;99176.38;4058949;29;20644;-87
2024/02/04 03:54:15;;;;;;;1.40;0.40;;;;;;;10.44;92.68;99180.69;4090219;28;20637;-87
2024/02/04 03:56:18;;;;;;;1.23;0.40;;;;;;;10.43;92.75;99173.78;4058324;29;21070;-88
2024/02/04 03:58:29;;;;;;;1.10;0.50;;;;;;;10.45;92.30;99175.41;4074013;29;20693;-86
2024/02/04 04:00:33;;;;;;;1.57;0.60;;;;;;;10.46;92.78;99171.00;4073932;29;21232;-87
2024/02/04 04:02:37;;;;;;;1.33;0.50;;;;;;;10.48;92.56;99177.03;4064638;29;20641;-87
2024/02/04 04:04:43;;;;;;;1.40;0.33;;;;;;;10.50;92.24;99177.78;4087395;28;20625;-87
2024/02/04 04:06:48;;;;;;;1.50;0.30;;;;;;;10.49;92.70;99176.94;4068614;29;20805;-89
2024/02/04 04:08:52;;;;;;;1.00;0.37;;;;;;;10.52;92.96;99183.75;4086101;28;20617;-86
2024/02/04 04:10:55;;;;;;;1.00;0.40;;;;;;;10.54;91.94;99171.47;4078281;29;20645;-87
2024/02/04 04:12:58;;;;;;;1.23;0.50;;;;;;;10.56;92.67;99174.84;4072594;29;20638;-85
2024/02/04 04:15:02;;;;;;;1.10;0.40;;;;;;;10.58;92.17;99175.59;4073675;29;20725;-87
2024/02/04 04:17:06;;;;;;;1.00;0.40;;;;;;;10.61;92.37;99185.88;4072579;28;21240;-86
2024/02/04 04:19:10;;;;;;;1.30;0.40;;;;;;;10.62;92.56;99184.97;4073630;29;21278;-87
2024/02/04 04:21:17;;;;;;;1.20;0.50;;;;;;;10.60;91.62;99197.22;4055441;29;21042;-87
2024/02/04 04:23:21;;;;;;;1.13;0.40;;;;;;;10.54;92.51;99192.31;4075117;29;20662;-86
2024/02/04 04:25:24;;;;;;;1.17;0.40;;;;;;;10.42;91.76;99180.75;4076383;29;20661;-86
2024/02/04 04:27:28;;;;;;;1.40;0.60;;;;;;;10.32;90.97;99189.97;4080085;29;20661;-87
2024/02/04 04:29:31;;;;;;;1.50;0.70;;;;;;;10.22;91.29;99177.44;4076242;29;20741;-87
2024/02/04 04:31:34;;;;;;;1.60;0.70;;;;;;;10.17;91.01;99178.63;4072433;29;21244;-85
2024/02/04 04:33:38;;;;;;;1.50;0.50;;;;;;;10.05;90.80;99172.22;4060041;29;20630;-87
2024/02/04 04:35:42;;;;;;;1.47;0.70;;;;;;;9.97;90.17;99165.72;4071699;29;20685;-87
2024/02/04 04:37:47;;;;;;;3.40;0.90;;;;;;;9.89;90.83;99162.59;4060340;29;20741;-88
2024/02/04 04:39:51;;;;;;;1.63;0.60;;;;;;;9.82;90.29;99155.16;4075781;29;20729;-85
2024/02/04 04:41:55;;;;;;;1.30;0.63;;;;;;;9.77;90.75;99157.13;4074193;29;20731;-87
2024/02/04 04:43:58;;;;;;;1.23;0.60;;;;;;;9.69;91.64;99164.47;4061357;29;20646;-87
2024/02/04 04:46:01;;;;;;;1.60;0.90;;;;;;;9.67;91.66;99155.91;4076872;29;20665;-87
2024/02/04 04:48:07;;;;;;;1.80;0.87;;;;;;;9.62;91.21;99157.88;4076054;29;20642;-87
2024/02/04 04:50:10;;;;;;;1.50;0.70;;;;;;;9.60;91.44;99159.72;4074416;29;20630;-88
2024/02/04 04:52:15;;;;;;;1.40;0.80;;;;;;;9.59;91.63;99155.41;4058863;29;20637;-88
2024/02/04 04:54:19;;;;;;;1.33;0.70;;;;;;;9.65;91.82;99157.72;4077013;29;20746;-84
2024/02/04 04:56:22;;;;;;;1.60;0.83;;;;;;;9.73;91.80;99168.63;4069570;29;20643;-87
2024/02/04 04:58:26;;;;;;;1.47;0.80;;;;;;;9.80;91.16;99165.63;4075645;29;20638;-87
2024/02/04 05:00:29;;;;;;;1.60;0.87;;;;;;;9.85;91.35;99161.91;4058041;29;20637;-86
2024/02/04 05:02:31;;;;;;;1.33;0.77;;;;;;;9.89;90.73;99158.25;4062752;29;20642;-87
2024/02/04 05:04:35;;;;;;;1.40;0.80;;;;;;;9.94;91.02;99166.72;4077156;29;21554;-87
2024/02/04 05:06:38;;;;;;;1.63;0.93;;;;;;;9.93;90.93;99162.41;4070574;29;20683;-87
2024/02/04 05:08:42;;;;;;;1.30;0.60;;;;;;;9.93;90.68;99157.19;4076684;29;20643;-87
2024/02/04 05:10:46;;;;;;;1.50;0.90;;;;;;;9.92;91.47;99158.09;4064112;29;20729;-87
2024/02/04 05:12:50;;;;;;;1.40;0.80;;;;;;;9.98;91.02;99163.03;4071968;29;20694;-88
2024/02/04 05:14:53;;;;;;;1.73;0.87;;;;;;;10.02;90.55;99167.16;4064594;29;21049;-87
2024/02/04 05:16:57;;;;;;;2.00;1.50;;;;;;;10.06;90.48;99166.09;4057886;29;20619;-87
2024/02/04 05:19:00;;;;;;;1.60;0.80;;;;;;;10.08;90.81;99168.63;4073825;29;20588;-88
2024/02/04 05:21:04;;;;;;;1.20;0.60;;;;;;;10.00;90.19;99162.97;4062220;29;21449;-87
2024/02/04 05:23:07;;;;;;;2.50;0.90;;;;;;;9.93;90.39;99153.72;4076309;29;20692;-86
2024/02/04 05:25:11;;;;;;;1.43;0.80;;;;;;;9.89;90.78;99153.03;4060496;29;20644;-86
2024/02/04 05:27:16;;;;;;;1.33;0.70;;;;;;;9.87;90.82;99157.44;4052641;29;20754;-88
2024/02/04 05:29:19;;;;;;;2.03;0.70;;;;;;;9.89;90.99;99155.63;4073543;29;20683;-87
2024/02/04 05:31:22;;;;;;;1.40;0.80;;;;;;;9.91;90.86;99147.75;4061345;29;20635;-88
2024/02/04 05:33:25;;;;;;;1.37;0.73;;;;;;;9.95;90.63;99152.78;4074425;29;20637;-87
2024/02/04 05:35:29;;;;;;;1.10;0.50;;;;;;;10.01;90.99;99156.81;4057821;29;20742;-87
2024/02/04 05:37:33;;;;;;;1.63;0.80;;;;;;;10.05;90.62;99161.81;4061747;29;21649;-87
2024/02/04 05:39:36;;;;;;;1.43;0.80;;;;;;;10.07;91.05;99157.38;4071055;29;20627;-88
2024/02/04 05:41:39;;;;;;;1.17;0.60;;;;;;;10.09;91.07;99165.97;4076919;29;20614;-86
2024/02/04 05:43:45;;;;;;;1.30;0.70;;;;;;;10.14;90.57;99170.94;4071739;29;21286;-86
2024/02/04 05:45:51;;;;;;;1.50;0.70;;;;;;;10.15;90.42;99170.88;4077678;29;20639;-86
2024/02/04 05:47:54;;;;;;;2.33;1.07;;;;;;;10.19;90.74;99166.34;4078222;29;20708;-86
2024/02/04 05:49:57;;;;;;;2.23;1.10;;;;;;;10.21;91.14;99167.09;4063255;29;20965;-87
2024/02/04 05:52:01;;;;;;;1.50;0.90;;;;;;;10.22;90.33;99177.44;4075952;29;20665;-87
2024/02/04 05:54:04;;;;;;;2.43;1.10;;;;;;;10.23;90.94;99189.56;4058086;29;21081;-85
2024/02/04 05:56:08;;;;;;;1.60;0.80;;;;;;;10.23;90.84;99186.13;4067505;29;21374;-85
2024/02/04 05:58:10;;;;;;;2.10;1.10;;;;;;;10.21;90.50;99175.78;4057315;29;20619;-87
2024/02/04 06:00:16;;;;;;;2.20;1.37;;;;;;;10.22;91.77;99180.06;4062190;29;20631;-85
2024/02/04 06:02:20;;;;;;;3.40;1.80;;;;;;;10.23;91.71;99180.91;4057493;29;21361;-86
2024/02/04 06:04:24;;;;;;;2.13;1.10;;;;;;;10.20;92.09;99187.13;4069744;29;20615;-88
2024/02/04 06:06:27;;;;;;;2.20;1.17;;;;;;;10.18;91.54;99182.88;4071192;29;21109;-88
2024/02/04 06:08:30;;;;;;;2.67;1.40;;;;;;;10.20;92.18;99178.47;4073315;29;20984;-87
2024/02/04 06:10:34;;;;;;;2.17;1.10;;;;;;;10.19;91.68;99171.56;4063270;29;20626;-88
2024/02/04 06:12:37;;;;;;;2.93;1.30;;;;;;;10.19;92.29;99169.78;4084278;28;20637;-87
2024/02/04 06:14:40;;;;;;;2.50;0.93;;;;;;;10.20;92.75;99174.09;4064345;29;20635;-88
2024/02/04 06:16:45;;;;;;;1.90;1.13;;;;;;;10.20;92.48;99179.31;4062891;29;20626;-87
2024/02/04 06:18:48;;;;;;;1.63;0.90;;;;;;;10.20;92.77;99179.31;4061050;29;20630;-87
2024/02/04 06:20:51;;;;;;;1.83;0.80;;;;;;;10.21;91.84;99191.44;4075558;29;20681;-87
2024/02/04 06:22:55;;;;;;;3.40;0.80;;;;;;;10.22;91.63;99187.03;4051135;29;20655;-87
2024/02/04 06:24:58;;;;;;;1.80;0.90;;;;;;;10.20;92.22;99179.31;4054685;29;20709;-86
2024/02/04 06:27:00;;;;;;;1.70;1.00;;;;;;;10.15;91.59;99178.69;4089737;28;20693;-87
2024/02/04 06:29:04;;;;;;;1.83;0.90;;;;;;;10.14;92.09;99173.56;4060410;29;20647;-88
2024/02/04 06:31:10;;;;;;;2.17;1.00;;;;;;;10.11;92.80;99174.53;4058497;29;20638;-86
2024/02/04 06:33:14;;;;;;;2.50;1.10;;;;;;;10.09;93.48;99172.94;4069208;29;20673;-86
2024/02/04 06:35:18;;;;;;;1.80;1.07;;;;;;;10.07;93.23;99174.75;4074553;29;21026;-86
2024/02/04 06:37:21;;;;;;;1.70;0.90;;;;;;;10.05;92.49;99174.84;4080702;28;20649;-86
2024/02/04 06:39:24;;;;;;;1.60;0.90;;;;;;;10.05;92.69;99190.47;4058307;29;20722;-86
2024/02/04 06:41:28;;;;;;;1.60;0.90;;;;;;;10.07;92.55;99188.66;4057608;29;20629;-87
2024/02/04 06:43:31;;;;;;;1.50;0.70;;;;;;;10.09;92.83;99194.63;4061396;29;20710;-86
2024/02/04 06:45:39;;;;;;;1.70;0.97;;;;;;;10.07;92.76;99199.09;4073353;29;21438;-86
2024/02/04 06:47:44;;;;;;;1.83;0.87;;;;;;;10.07;92.92;99201.69;4059630;29;20662;-86
2024/02/04 06:49:49;;;;;;;1.53;0.90;;;;;;;10.06;92.46;99200.00;4064318;29;20647;-88
2024/02/04 06:51:56;;;;;;;1.47;0.83;;;;;;;10.05;93.20;99207.88;4076063;29;20633;-86
2024/02/04 06:54:00;;;;;;;2.10;0.80;;;;;;;10.06;92.96;99202.59;4057875;29;20623;-86
2024/02/04 06:56:05;;;;;;;2.03;0.90;;;;;;;10.03;92.49;99207.97;4073281;29;20621;-87
2024/02/04 06:58:09;;;;;;;1.30;0.60;;;;;;;10.03;93.68;99202.75;4088967;28;21133;-85
2024/02/04 07:00:13;;;;;;;1.60;0.70;;;;;;;10.02;93.15;99195.84;4074984;29;21222;-86
2024/02/04 07:02:16;;;;;;;1.60;0.80;;;;;;;10.03;93.43;99194.94;4062717;29;20763;-85
2024/02/04 07:04:21;;;;;;;1.70;0.90;;;;;;;10.03;93.40;99202.75;4064698;29;21057;-89
2024/02/04 07:06:26;;;;;;;1.33;0.80;;;;;;;10.03;94.21;99202.75;4079303;29;20683;-89
2024/02/04 07:08:29;;;;;;;1.70;0.80;;;;;;;9.98;94.13;99199.53;4077736;29;20697;-89
2024/02/04 07:10:33;;;;;;;8.50;1.27;;;;;;;9.98;94.42;99191.72;4074623;29;21211;-88
2024/02/04 07:12:36;;;;;;;1.30;0.70;;;;;;;9.95;94.60;99191.84;4074110;29;20644;-88
2024/02/04 07:14:39;;;;;;;2.53;0.90;;;;;;;9.93;94.34;99198.00;4079133;29;21022;-86
2024/02/04 07:16:43;;;;;;;1.80;0.77;;;;;;;9.90;94.41;99183.38;4062536;29;20634;-86
2024/02/04 07:18:46;;;;;;;1.80;0.90;;;;;;;9.88;94.30;99185.22;4060096;29;21261;-86
2024/02/04 07:20:50;;;;;;;1.43;0.80;;;;;;;9.89;94.89;99186.03;4063896;29;21056;-86
2024/02/04 07:22:54;;;;;;;1.70;0.80;;;;;;;9.89;95.47;99173.88;4073847;29;20686;-86
2024/02/04 07:24:57;;;;;;;1.50;0.80;;;;;;;9.88;95.80;99166.97;4079770;29;20630;-86
2024/02/04 07:27:00;;;;;;;1.70;0.90;;;;;;;9.88;94.95;99168.75;4078491;29;20751;-86
2024/02/04 07:29:03;;;;;;;1.30;0.70;;;;;;;9.86;94.77;99179.25;4059982;29;20667;-86
2024/02/04 07:31:07;;;;;;;1.30;0.75;;;;;;;9.84;94.69;99176.78;4062012;29;20804;-85
2024/02/04 07:33:10;;;;;;;1.60;0.80;;;;;;;9.84;94.44;99190.63;4078795;29;20205;-87
2024/02/04 07:35:14;;;;;;;2.90;0.87;;;;;;;9.86;95.08;99186.19;4061804;29;20641;-86
2024/02/04 07:37:18;;;;;;;1.57;0.80;;;;;;;9.85;95.24;99187.97;4077320;29;20629;-87
2024/02/04 07:39:23;;;;;;;1.80;1.27;;;;;;;9.86;95.29;99178.38;4078537;29;20666;-86
2024/02/04 07:41:27;;;;;;;1.43;0.87;;;;;;;9.85;95.78;99184.53;4075570;29;20669;-86
2024/02/04 07:43:29;;;;;;;1.90;1.00;;;;;;;9.84;95.78;99188.88;4074153;29;20628;-88
2024/02/04 07:45:33;;;;;;;1.50;0.90;;;;;;;9.83;96.45;99188.94;4093719;28;20667;-87
2024/02/04 07:47:35;;;;;;;1.50;1.00;;;;;;;9.82;96.73;99182.06;4069459;29;21256;-87
2024/02/04 07:49:38;;;;;;;2.30;1.40;;;;;;;9.81;96.56;99182.13;4048778;29;21277;-87
2024/02/04 07:51:42;;;;;;;2.10;1.20;;;;;;;9.81;96.21;99179.53;4064238;29;20700;-87
2024/02/04 07:53:45;;;;;;;1.90;1.40;;;;;;;9.81;96.53;99174.31;4062842;29;20734;-87
2024/02/04 07:55:50;;;;;;;1.70;0.90;;;;;;;9.81;95.91;99169.09;4075820;29;20633;-87
2024/02/04 07:57:54;;;;;;;2.17;1.00;;;;;;;9.83;95.81;99169.88;4074556;29;21038;-87
2024/02/04 07:59:57;;;;;;;2.80;1.50;;;;;;;9.84;95.31;99166.34;4067470;29;20799;-86
2024/02/04 08:02:04;;;;;;;2.42;1.15;;;;;;;9.86;94.96;99166.22;4072570;29;21342;-87
2024/02/04 08:04:10;;;;;;;1.60;0.90;;;;;;;9.89;95.12;99162.59;4074088;29;20278;-86
2024/02/04 08:06:14;;;;;;;2.20;1.30;;;;;;;9.90;94.06;99179.91;4072713;29;21027;-87
2024/02/04 08:08:16;;;;;;;2.75;0.90;;;;;;;9.90;93.33;99170.34;4057157;29;21234;-86
2024/02/04 08:10:19;;;;;;;1.80;1.20;;;;;;;9.87;93.39;99159.22;4076981;29;20199;-85
2024/02/04 08:12:24;;;;;;;2.30;0.90;;;;;;;9.88;93.51;99158.31;4075131;29;20661;-85
2024/02/04 08:14:27;;;;;;;1.93;0.87;;;;;;;9.87;92.66;99162.66;4059928;29;20634;-85
2024/02/04 08:16:31;;;;;;;1.90;1.10;;;;;;;9.83;93.33;99159.44;4063324;29;20622;-85
2024/02/04 08:18:34;;;;;;;1.67;0.97;;;;;;;9.80;92.69;99151.78;4075235;29;20767;-85
2024/02/04 08:20:37;;;;;;;1.80;0.80;;;;;;;9.76;91.72;99161.50;4061484;29;20634;-85
2024/02/04 08:22:41;;;;;;;2.10;1.20;;;;;;;9.73;92.19;99166.88;4075108;29;21149;-85
2024/02/04 08:24:44;;;;;;;2.70;1.20;;;;;;;9.69;92.45;99161.88;4071948;29;21215;-85
2024/02/04 08:26:48;;;;;;;1.70;1.00;;;;;;;9.66;92.63;99162.03;4059651;29;20739;-85
2024/02/04 08:28:53;;;;;;;1.97;0.90;;;;;;;9.64;93.05;99161.25;4060797;29;20992;-85
2024/02/04 08:30:56;;;;;;;1.63;0.97;;;;;;;9.67;92.98;99169.75;4069813;29;20631;-84
2024/02/04 08:32:59;;;;;;;1.67;0.93;;;;;;;9.72;92.91;99172.16;4071203;29;20634;-85
2024/02/04 08:35:03;;;;;;;1.60;0.80;;;;;;;9.72;93.18;99175.59;4063547;29;20663;-85
2024/02/04 08:37:07;;;;;;;2.17;1.00;;;;;;;9.73;93.42;99172.06;4070618;29;20698;-85
2024/02/04 08:39:11;;;;;;;1.90;1.00;;;;;;;9.74;93.42;99179.00;4069115;29;21223;-85
2024/02/04 08:41:14;;;;;;;1.88;1.05;;;;;;;9.71;93.42;99170.44;4078465;29;21258;-85
2024/02/04 08:43:17;;;;;;;2.33;1.27;;;;;;;9.65;94.43;99169.00;4075588;29;20273;-85
2024/02/04 08:45:23;;;;;;;1.83;1.00;;;;;;;9.62;94.77;99165.69;4076932;29;21072;-85
2024/02/04 08:47:26;;;;;;;1.70;1.13;;;;;;;9.63;94.88;99172.59;4071226;29;20696;-85
2024/02/04 08:49:30;;;;;;;1.80;0.93;;;;;;;9.64;95.59;99171.69;4065118;29;21538;-85
2024/02/04 08:51:32;;;;;;;1.45;0.80;;;;;;;9.60;95.77;99165.75;4058979;29;20229;-85
2024/02/04 08:53:36;;;;;;;1.53;1.00;;;;;;;9.59;95.64;99165.81;4060751;29;20645;-85
2024/02/04 08:55:39;;;;;;;1.63;0.80;;;;;;;9.59;96.04;99168.44;4059570;29;20737;-88
2024/02/04 08:57:41;;;;;;;1.90;0.93;;;;;;;9.55;97.02;99165.13;4070284;29;20623;-87
2024/02/04 08:59:45;;;;;;;1.70;1.00;;;;;;;9.51;97.26;99168.78;4067843;29;20630;-90
2024/02/04 09:01:49;;;;;;;2.42;1.30;;;;;;;9.53;98.38;99159.16;4063953;29;20309;-90
2024/02/04 09:03:52;;;;;;;2.05;0.98;;;;;;;9.55;98.00;99164.31;4061265;29;20255;-87
2024/02/04 09:05:57;;;;;;;1.70;0.90;;;;;;;9.56;97.32;99163.34;4056414;29;20238;-89
2024/02/04 09:08:01;;;;;;;2.05;1.00;;;;;;;9.54;97.57;99167.81;4076636;29;20630;-89
2024/02/04 09:10:05;;;;;;;2.10;0.80;;;;;;;9.59;97.25;99163.22;4057834;29;20772;-91
2024/02/04 09:12:09;;;;;;;1.70;1.07;;;;;;;9.57;96.77;99160.69;4068913;29;20764;-90
2024/02/04 09:14:12;;;;;;;2.45;1.25;;;;;;;9.64;97.42;99161.25;4079158;29;20994;-88
2024/02/04 09:16:16;;;;;;;3.30;1.20;;;;;;;9.66;96.89;99168.06;4077962;29;20218;-89
2024/02/04 09:18:23;;;;;;;1.90;1.33;;;;;;;9.64;96.72;99172.50;4075734;29;20254;-89
2024/02/04 09:20:27;;;;;;;2.80;1.50;;;;;;;9.68;97.05;99173.19;4077411;29;20630;-91
2024/02/04 09:22:31;;;;;;;2.10;1.63;;;;;;;9.73;96.71;99186.88;4075935;29;20615;-92
2024/02/04 09:24:34;;;;;;;2.90;2.00;;;;;;;9.77;97.16;99191.00;4059130;29;20661;-90
2024/02/04 09:26:38;;;;;;;1.83;0.83;;;;;;;9.84;96.57;99190.63;4061990;29;20753;-90
2024/02/04 09:28:41;;;;;;;1.80;0.87;;;;;;;9.90;97.26;99185.97;4079745;29;20697;-90
2024/02/04 09:30:45;;;;;;;1.40;0.70;;;;;;;9.97;97.14;99182.19;4075657;29;20687;-85
2024/02/04 09:32:47;;;;;;;1.73;0.90;;;;;;;10.05;96.41;99182.66;4076090;29;20633;-88
2024/02/04 09:34:52;;;;;;;1.47;0.60;;;;;;;10.09;96.73;99185.97;4059586;29;21055;-87
2024/02/04 09:36:56;;;;;;;1.65;0.90;;;;;;;10.17;96.49;99181.22;4073117;29;20657;-87
2024/02/04 09:39:00;;;;;;;1.30;0.60;;;;;;;10.19;95.25;99181.97;4058873;29;20222;-86
2024/02/04 09:41:04;;;;;;;3.13;0.60;;;;;;;10.26;96.01;99196.41;4065185;29;20203;-86
2024/02/04 09:43:08;;;;;;;2.20;0.70;;;;;;;10.33;94.74;99185.59;4072541;29;21076;-91
2024/02/04 09:45:13;;;;;;;1.50;0.60;;;;;;;10.39;94.64;99186.13;4068957;29;20632;-89
2024/02/04 09:47:17;;;;;;;1.20;0.43;;;;;;;10.41;94.52;99194.72;4066794;29;20639;-87